Rexburg, ID (83440)

10:55 PM MDT on September 03, 2015 (GMT -0600)
ARLFRD | | Change Station
CLOSE
Current Station
Personal Weather Station
Location: Sugar City, ID
Elevation: 4895 ft
Nearby Weather Stations

Elev 4895 ft 43.90 °N, 111.74 °W | Updated 35 minutes ago

Mostly Cloudy
Mostly Cloudy
61 °F
Feels Like 61 °F
N
8
Wind Variable Wind from ESE
Gusts 11.0 mph

Today
High -- | Low -- °F
--% Chance of Precip.
Yesterday
High -- | Low -- °F
Precip. -- in
6:52 AM 7:59 PM
Waning Gibbous, 63% visible
Pressure 29.75 in
Visibility 10.0 miles
Clouds Mostly Cloudy 10000 ft
Dew Point 47 °F
Humidity 59%
Rainfall in
Snow Depth Not available.
UV 0 out of 12
Pollen 8.70 out of 12
Air Quality Not available.
Flu Activity Not available.
METAR KRXE 040353Z AUTO 14007G15KT 10SM BKN100 19/06 A2987 RMK AO2 RAB11E23 SLP075 P0000 T01890061
Pressure 29.75 in
Visibility 10.0 miles
Clouds Mostly Cloudy 10000 ft
Dew Point 47 °F
Humidity 59%
Rainfall in
Snow Depth Not available.
UV 0 out of 12
Pollen 8.70 out of 12
Air Quality Not available.
Flu Activity Not available.
METAR KRXE 040353Z AUTO 14007G15KT 10SM BKN100 19/06 A2987 RMK AO2 RAB11E23 SLP075 P0000 T01890061

10-Day Weather Forecast

×

Almanac

Astronomy

Sep. 03, 2015 Rise Set
Actual Time
Civil Twilight
Nautical Twilight
Astronomical Twilight
Moon
Length of Visible Light
Length of Day
Tomorrow will be .
, % of the Moon is Illuminated

Today's Extremes

State Highs State Lows

Community

WunderPhotos

Upload Photos

1,852,129 photos uploaded!

WunderBlogs® & News

Nearby

Air Quality

  Air Quality AQ Index Pollutant
Not available.

Snow Depth

Station Depth Elevation

Earthquake Activity

City Distance Mag. Time & Date
Minimum magnitude displayed is 2.5.

Coastal Water Temperatures

Place Temperature

Stations

Nearby Weather Stations

Station Location Temp. Windchill Dew Point Humidity Wind Precip. Elev Updated Type